createdAt,value
2018-12-24T00:02:41.216Z,99.90
2018-12-24T00:05:22.284Z,99.90
2018-12-24T00:08:03.238Z,99.90
2018-12-24T00:10:44.472Z,99.90
2018-12-24T00:13:25.164Z,99.90
2018-12-24T00:16:06.243Z,99.90
2018-12-24T00:18:46.974Z,99.90
2018-12-24T00:21:28.329Z,99.90
2018-12-24T00:24:09.265Z,99.90
2018-12-24T00:26:50.329Z,99.90
2018-12-24T00:29:31.429Z,99.90
2018-12-24T00:32:15.450Z,99.90
2018-12-24T00:34:56.526Z,99.90
2018-12-24T00:37:37.655Z,99.90
2018-12-24T00:40:18.705Z,99.90
2018-12-24T00:42:59.507Z,99.90
2018-12-24T00:45:40.217Z,99.90
2018-12-24T00:48:21.738Z,99.90
2018-12-24T00:51:03.178Z,99.90
2018-12-24T00:53:44.391Z,99.90
2018-12-24T00:56:25.678Z,99.90
2018-12-24T00:59:06.422Z,99.90
2018-12-24T01:01:48.900Z,99.90
2018-12-24T01:04:30.435Z,99.90
2018-12-24T01:07:11.397Z,99.90
2018-12-24T01:09:52.649Z,99.90
2018-12-24T01:12:33.347Z,99.90
2018-12-24T01:15:14.448Z,99.90
2018-12-24T01:17:55.436Z,99.90
2018-12-24T01:20:36.410Z,99.90
2018-12-24T01:23:17.933Z,99.90
2018-12-24T01:25:58.743Z,99.90
2018-12-24T01:28:40.289Z,99.90
2018-12-24T01:31:21.130Z,99.90
2018-12-24T01:34:01.937Z,99.90
2018-12-24T01:36:42.760Z,99.90
2018-12-24T01:39:23.560Z,99.90
2018-12-24T01:42:04.144Z,99.90
2018-12-24T01:44:45.162Z,99.90
2018-12-24T01:47:26.493Z,99.90
2018-12-24T01:50:07.435Z,99.90
2018-12-24T01:52:49.038Z,99.90
2018-12-24T01:55:30.262Z,99.90
2018-12-24T01:58:11.199Z,99.90
2018-12-24T02:00:52.658Z,99.90
2018-12-24T02:03:33.414Z,99.90
2018-12-24T02:06:03.119Z,99.90
2018-12-24T02:08:32.764Z,99.90
2018-12-24T02:11:02.346Z,99.90
2018-12-24T02:13:50.979Z,99.90
2018-12-24T02:16:32.258Z,99.90
2018-12-24T02:19:12.975Z,99.90
2018-12-24T02:21:54.033Z,99.90
2018-12-24T02:24:34.627Z,99.90
2018-12-24T02:27:15.720Z,99.90
2018-12-24T02:29:56.396Z,99.90
2018-12-24T02:32:37.053Z,99.90
2018-12-24T02:35:19.438Z,99.90
2018-12-24T02:38:00.721Z,99.90
2018-12-24T02:40:41.973Z,99.90
2018-12-24T02:43:23.433Z,99.90
2018-12-24T02:46:04.318Z,99.90
2018-12-24T02:48:45.914Z,99.90
2018-12-24T02:51:26.615Z,99.90
2018-12-24T02:53:56.264Z,99.90
2018-12-24T02:56:25.833Z,99.90
2018-12-24T02:58:55.360Z,99.90
2018-12-24T03:01:43.935Z,99.90
2018-12-24T03:04:32.461Z,99.90
2018-12-24T03:07:13.714Z,99.90
2018-12-24T03:09:55.246Z,99.90
2018-12-24T03:12:36.165Z,99.90
2018-12-24T03:15:17.087Z,99.90
2018-12-24T03:17:58.522Z,99.90
2018-12-24T03:20:39.331Z,99.90
2018-12-24T03:23:21.382Z,99.90
2018-12-24T03:26:02.190Z,99.90
2018-12-24T03:28:43.350Z,99.90
2018-12-24T03:31:24.629Z,99.90
2018-12-24T03:34:05.428Z,99.90
2018-12-24T03:36:46.233Z,99.90
2018-12-24T03:39:26.962Z,99.90
2018-12-24T03:42:07.810Z,99.90
2018-12-24T03:44:48.838Z,99.90
2018-12-24T03:47:29.752Z,99.90
2018-12-24T03:50:10.797Z,99.90
2018-12-24T03:52:51.618Z,99.90
2018-12-24T03:55:32.918Z,99.90
2018-12-24T03:58:13.763Z,99.90
2018-12-24T04:00:54.445Z,99.90
2018-12-24T04:03:35.593Z,99.90
2018-12-24T04:06:16.682Z,99.90
2018-12-24T04:08:57.453Z,99.90
2018-12-24T04:11:38.761Z,99.90
2018-12-24T04:14:19.761Z,99.90
2018-12-24T04:17:00.773Z,99.90
2018-12-24T04:19:41.634Z,99.90
2018-12-24T04:22:22.952Z,99.90
2018-12-24T04:25:04.056Z,99.90
2018-12-24T04:27:45.421Z,99.90
2018-12-24T04:30:26.086Z,99.90
2018-12-24T04:33:06.816Z,99.90
2018-12-24T04:35:48.363Z,99.90
2018-12-24T04:38:30.173Z,99.90
2018-12-24T04:41:11.015Z,99.90
2018-12-24T04:43:52.380Z,99.90
2018-12-24T04:46:33.683Z,99.90
2018-12-24T04:49:14.732Z,99.90
2018-12-24T04:51:55.464Z,99.90
2018-12-24T04:54:36.450Z,99.90
2018-12-24T04:57:17.869Z,99.90
2018-12-24T04:59:58.898Z,99.90
2018-12-24T05:02:40.013Z,99.90
2018-12-24T05:05:20.812Z,99.90
2018-12-24T05:08:01.781Z,99.90
2018-12-24T05:10:42.653Z,99.90
2018-12-24T05:13:23.577Z,99.90
2018-12-24T05:16:04.238Z,99.90
2018-12-24T05:18:45.342Z,99.90
2018-12-24T05:21:26.433Z,99.90
2018-12-24T05:24:07.803Z,99.90
2018-12-24T05:26:49.162Z,99.90
2018-12-24T05:29:30.644Z,99.90
2018-12-24T05:32:12.202Z,99.90
2018-12-24T05:34:53.246Z,99.90
2018-12-24T05:37:34.042Z,99.90
2018-12-24T05:40:15.090Z,99.90
2018-12-24T05:42:56.023Z,99.90
2018-12-24T05:45:36.986Z,99.90
2018-12-24T05:48:17.709Z,99.90
2018-12-24T05:50:58.621Z,99.90
2018-12-24T05:53:39.607Z,99.90
2018-12-24T05:56:20.895Z,99.90
2018-12-24T05:59:01.721Z,99.90
2018-12-24T06:01:43.093Z,99.90
2018-12-24T06:04:24.115Z,99.90
2018-12-24T06:07:05.341Z,99.90
2018-12-24T06:09:46.157Z,99.90
2018-12-24T06:12:27.050Z,99.90
2018-12-24T06:15:07.844Z,99.90
2018-12-24T06:17:48.990Z,99.90
2018-12-24T06:20:18.573Z,99.90
2018-12-24T06:22:48.126Z,99.90
2018-12-24T06:25:17.685Z,99.90
2018-12-24T06:28:06.225Z,99.90
2018-12-24T06:30:54.785Z,99.90
2018-12-24T06:33:35.577Z,99.90
2018-12-24T06:36:16.265Z,99.90
2018-12-24T06:38:45.861Z,99.90
2018-12-24T06:41:15.381Z,99.90
2018-12-24T06:44:06.863Z,99.90
2018-12-24T06:46:54.198Z,99.90
2018-12-24T06:52:25.021Z,99.90
2018-12-24T06:55:05.821Z,99.90
2018-12-24T06:57:46.757Z,99.90
2018-12-24T07:00:27.720Z,99.90
2018-12-24T07:03:08.666Z,99.90
2018-12-24T07:05:49.441Z,99.90
2018-12-24T07:08:30.568Z,99.90
2018-12-24T07:11:11.385Z,99.90
2018-12-24T07:13:52.443Z,99.90
2018-12-24T07:16:34.033Z,99.90
2018-12-24T07:19:15.675Z,99.90
2018-12-24T07:21:56.882Z,99.90
2018-12-24T07:24:38.162Z,99.90
2018-12-24T07:27:19.161Z,99.90
2018-12-24T07:30:00.161Z,99.90
2018-12-24T07:32:41.389Z,99.90
2018-12-24T07:35:22.160Z,99.90
2018-12-24T07:38:03.363Z,99.90
2018-12-24T07:40:44.200Z,99.90
2018-12-24T07:43:25.192Z,99.90
2018-12-24T07:46:06.036Z,99.90
2018-12-24T07:48:46.745Z,99.90
2018-12-24T07:51:27.565Z,99.90
2018-12-24T07:54:08.277Z,99.90
2018-12-24T07:56:49.562Z,99.90
2018-12-24T07:59:30.566Z,99.90
2018-12-24T08:02:11.625Z,99.90
2018-12-24T08:04:53.086Z,99.90
2018-12-24T08:07:34.090Z,99.90
2018-12-24T08:10:15.384Z,99.90
2018-12-24T08:12:56.808Z,99.90
2018-12-24T08:15:37.853Z,99.90
2018-12-24T08:18:19.225Z,99.90
2018-12-24T08:20:59.888Z,99.90
2018-12-24T08:23:41.464Z,99.90
2018-12-24T08:26:22.277Z,99.90
2018-12-24T08:29:03.077Z,99.90
2018-12-24T08:31:46.914Z,99.90
2018-12-24T08:34:27.960Z,99.90
2018-12-24T08:37:09.157Z,99.90
2018-12-24T08:39:50.168Z,99.90
2018-12-24T08:42:30.946Z,99.90
2018-12-24T08:45:12.027Z,99.90
2018-12-24T08:47:52.880Z,99.90
2018-12-24T08:51:24.442Z,99.90
2018-12-24T08:54:05.880Z,99.90
2018-12-24T08:56:47.033Z,99.90
2018-12-24T08:59:27.773Z,99.90
2018-12-24T09:02:09.156Z,99.90
2018-12-24T09:04:50.134Z,99.90
2018-12-24T09:07:30.885Z,99.90
2018-12-24T09:10:12.182Z,99.90
2018-12-24T09:12:53.980Z,99.90
2018-12-24T09:15:34.402Z,99.90
2018-12-24T09:18:15.301Z,99.90
2018-12-24T09:20:56.722Z,99.90
2018-12-24T09:23:37.316Z,99.90
2018-12-24T09:26:18.541Z,99.90
2018-12-24T09:28:59.062Z,99.90
2018-12-24T09:31:39.805Z,99.90
2018-12-24T09:34:20.933Z,99.90
2018-12-24T09:37:02.321Z,99.90
2018-12-24T09:39:43.358Z,99.90
2018-12-24T09:42:24.782Z,99.90
2018-12-24T09:45:05.464Z,99.90
2018-12-24T09:47:46.590Z,99.90
2018-12-24T09:50:27.821Z,99.90
2018-12-24T09:53:08.250Z,99.90
2018-12-24T09:55:49.149Z,99.90
2018-12-24T09:58:30.517Z,99.90
2018-12-24T10:01:12.034Z,99.90
2018-12-24T10:03:53.473Z,99.90
2018-12-24T10:06:34.130Z,99.90
2018-12-24T10:09:14.858Z,99.90
2018-12-24T10:11:55.935Z,99.90
2018-12-24T10:14:36.655Z,99.90
2018-12-24T10:17:17.889Z,99.90
2018-12-24T10:19:59.182Z,99.90
2018-12-24T10:22:40.097Z,99.90
2018-12-24T10:25:09.240Z,99.90
2018-12-24T10:27:38.481Z,99.90
2018-12-24T10:30:08.142Z,99.90
2018-12-24T10:32:56.381Z,99.90
2018-12-24T10:35:25.643Z,99.90
2018-12-24T10:38:13.929Z,99.90
2018-12-24T10:41:21.265Z,99.90
2018-12-24T10:44:02.151Z,99.90
2018-12-24T10:46:43.316Z,99.90
2018-12-24T10:49:24.384Z,99.90
2018-12-24T10:52:04.885Z,99.90
2018-12-24T10:54:45.567Z,99.90
2018-12-24T10:57:26.907Z,99.90
2018-12-24T11:00:08.202Z,99.90
2018-12-24T11:02:49.617Z,99.90
2018-12-24T11:05:30.275Z,99.90
2018-12-24T11:08:11.054Z,99.90
2018-12-24T11:13:29.717Z,99.90
2018-12-24T11:15:58.907Z,99.90
2018-12-24T11:18:47.234Z,99.90
2018-12-24T11:21:35.497Z,99.90
2018-12-24T11:24:16.623Z,99.90
2018-12-24T11:26:57.586Z,99.90
2018-12-24T11:29:39.008Z,99.90
2018-12-24T11:32:19.731Z,99.90
2018-12-24T11:35:00.294Z,99.90
2018-12-24T11:37:41.165Z,99.90
2018-12-24T11:40:21.794Z,99.90
2018-12-24T11:43:02.633Z,99.90
2018-12-24T11:45:45.237Z,99.90
2018-12-24T11:48:14.508Z,99.90
2018-12-24T11:51:02.822Z,99.90
2018-12-24T11:53:43.595Z,99.90
2018-12-24T11:56:24.272Z,99.90
2018-12-24T11:59:05.253Z,99.90
2018-12-24T12:01:46.365Z,99.50
2018-12-24T12:04:27.698Z,97.90
2018-12-24T12:07:09.017Z,98.00
2018-12-24T12:09:49.734Z,95.70
2018-12-24T12:12:30.303Z,93.70
2018-12-24T12:15:13.026Z,92.70
2018-12-24T12:17:53.869Z,93.20
2018-12-24T12:20:35.300Z,93.30
2018-12-24T12:23:16.687Z,92.30
2018-12-24T12:25:57.842Z,92.60
2018-12-24T12:28:39.141Z,91.40
2018-12-24T12:31:19.838Z,91.40
2018-12-24T12:34:00.809Z,89.50
2018-12-24T12:36:41.544Z,89.20
2018-12-24T12:39:22.505Z,88.70
2018-12-24T12:42:03.926Z,88.50
2018-12-24T12:44:45.359Z,90.70
2018-12-24T12:47:26.786Z,91.20
2018-12-24T12:50:07.245Z,94.50
2018-12-24T12:52:47.845Z,98.20
2018-12-24T12:55:28.601Z,99.90
2018-12-24T12:58:09.600Z,99.90
2018-12-24T13:00:50.437Z,99.90
2018-12-24T13:03:31.083Z,99.90
2018-12-24T13:06:12.049Z,99.90
2018-12-24T13:08:52.990Z,99.90
2018-12-24T13:11:33.478Z,99.90
2018-12-24T13:14:13.904Z,99.90
2018-12-24T13:16:54.423Z,99.90
2018-12-24T13:19:35.169Z,99.90
2018-12-24T13:22:17.062Z,99.90
2018-12-24T13:24:57.897Z,99.90
2018-12-24T13:27:38.427Z,99.90
2018-12-24T13:30:18.865Z,99.90
2018-12-24T13:32:59.790Z,99.90
2018-12-24T13:35:41.126Z,99.90
2018-12-24T13:38:29.410Z,99.90
2018-12-24T13:41:17.656Z,99.90
2018-12-24T13:43:58.639Z,99.90
2018-12-24T13:46:39.638Z,99.90
2018-12-24T13:49:20.734Z,99.90
2018-12-24T13:52:01.382Z,99.90
2018-12-24T13:54:42.530Z,99.90
2018-12-24T13:57:23.254Z,99.90
2018-12-24T14:00:04.508Z,99.90
2018-12-24T14:02:45.738Z,99.90
2018-12-24T14:05:26.608Z,99.90
2018-12-24T14:08:07.219Z,99.90
2018-12-24T14:10:48.289Z,99.90
2018-12-24T14:13:28.716Z,99.90
2018-12-24T14:16:16.541Z,99.90
2018-12-24T14:18:51.811Z,99.90
2018-12-24T14:24:18.349Z,99.90
2018-12-24T14:26:58.910Z,99.90
2018-12-24T14:29:40.195Z,99.90
2018-12-24T14:32:21.338Z,99.90
2018-12-24T14:35:01.802Z,99.90
2018-12-24T14:37:42.381Z,99.90
2018-12-24T14:40:22.873Z,99.90
2018-12-24T14:43:03.833Z,99.90
2018-12-24T14:45:44.249Z,99.90
2018-12-24T14:48:25.262Z,99.90
2018-12-24T14:51:06.645Z,99.90
2018-12-24T14:53:47.132Z,99.90
2018-12-24T14:56:27.803Z,99.90
2018-12-24T14:59:08.194Z,99.90
2018-12-24T15:01:49.033Z,99.90
2018-12-24T15:04:18.178Z,99.90
2018-12-24T15:07:06.469Z,99.90
2018-12-24T15:09:57.189Z,99.90
2018-12-24T15:12:38.193Z,99.90
2018-12-24T15:15:19.131Z,99.90
2018-12-24T15:18:01.975Z,99.90
2018-12-24T15:20:42.529Z,99.90
2018-12-24T15:23:23.794Z,99.90
2018-12-24T15:26:05.175Z,99.90
2018-12-24T15:28:46.397Z,99.90
2018-12-24T15:31:26.852Z,99.90
2018-12-24T15:34:07.497Z,99.90
2018-12-24T15:36:48.689Z,99.90
2018-12-24T15:39:29.338Z,99.90
2018-12-24T15:42:10.678Z,99.90
2018-12-24T15:44:51.426Z,99.90
2018-12-24T15:53:29.790Z,99.90
2018-12-24T15:56:11.020Z,99.90
2018-12-24T15:58:51.720Z,99.90
2018-12-24T16:01:32.133Z,99.90
2018-12-24T16:04:12.925Z,99.90
2018-12-24T16:06:53.813Z,99.90
2018-12-24T16:09:34.844Z,99.90
2018-12-24T16:12:15.674Z,99.90
2018-12-24T16:14:56.623Z,99.90
2018-12-24T16:17:37.917Z,99.90
2018-12-24T16:20:19.078Z,99.90
2018-12-24T16:22:59.701Z,99.90
2018-12-24T16:25:40.940Z,99.90
2018-12-24T16:28:21.772Z,99.90
2018-12-24T16:31:03.181Z,99.90
2018-12-24T16:33:44.600Z,99.90
2018-12-24T16:36:25.011Z,99.90
2018-12-24T16:39:06.019Z,99.90
2018-12-24T16:41:51.040Z,99.90
2018-12-24T16:44:32.037Z,99.90
2018-12-24T16:47:13.192Z,99.90
2018-12-24T16:49:53.837Z,99.90
2018-12-24T16:52:34.229Z,99.90
2018-12-24T16:55:14.770Z,99.90
2018-12-24T16:57:56.038Z,99.90
2018-12-24T17:00:36.412Z,99.90
2018-12-24T17:03:17.627Z,99.90
2018-12-24T17:05:58.347Z,99.90
2018-12-24T17:08:39.514Z,99.90
2018-12-24T17:11:20.153Z,99.90
2018-12-24T17:14:01.477Z,99.90
2018-12-24T17:16:42.265Z,99.90
2018-12-24T17:19:22.860Z,99.90
2018-12-24T17:22:03.395Z,99.90
2018-12-24T17:24:44.789Z,99.90
2018-12-24T17:27:25.643Z,99.90
2018-12-24T17:30:06.540Z,99.90
2018-12-24T17:32:47.843Z,99.90
2018-12-24T17:35:28.308Z,99.90
2018-12-24T17:38:09.177Z,99.90
2018-12-24T17:40:49.720Z,99.90
2018-12-24T17:43:31.721Z,99.90
2018-12-24T17:46:13.033Z,99.90
2018-12-24T17:48:53.977Z,99.90
2018-12-24T17:51:34.525Z,99.90
2018-12-24T17:54:15.901Z,99.90
2018-12-24T17:56:56.372Z,99.90
2018-12-24T17:59:36.796Z,99.90
2018-12-24T18:02:17.597Z,99.90
2018-12-24T18:04:58.893Z,99.90
2018-12-24T18:07:39.402Z,99.90
2018-12-24T18:10:20.465Z,99.90
2018-12-24T18:13:01.091Z,99.90
2018-12-24T18:15:41.952Z,99.90
2018-12-24T18:18:22.761Z,99.90
2018-12-24T18:21:03.485Z,99.90
2018-12-24T18:23:44.198Z,99.90
2018-12-24T18:26:24.973Z,99.90
2018-12-24T18:29:05.743Z,99.90
2018-12-24T18:31:34.991Z,99.90
2018-12-24T18:34:24.896Z,99.90
2018-12-24T18:39:48.944Z,99.90
2018-12-24T18:42:29.425Z,99.90
2018-12-24T18:45:09.862Z,99.90
2018-12-24T18:47:51.045Z,99.90
2018-12-24T18:50:32.392Z,99.90
2018-12-24T18:53:13.194Z,99.90
2018-12-24T18:55:53.749Z,99.90
2018-12-24T18:58:34.225Z,99.90
2018-12-24T19:01:14.734Z,99.90
2018-12-24T19:03:55.202Z,99.90
2018-12-24T19:06:35.669Z,99.90
2018-12-24T19:09:16.881Z,99.90
2018-12-24T19:11:58.270Z,99.90
2018-12-24T19:14:39.271Z,99.90
2018-12-24T19:17:20.154Z,99.90
2018-12-24T19:20:01.362Z,99.90
2018-12-24T19:22:42.145Z,99.90
2018-12-24T19:25:22.558Z,99.90
2018-12-24T19:28:03.108Z,99.90
2018-12-24T19:30:44.476Z,99.90
2018-12-24T19:33:13.676Z,99.90
2018-12-24T19:36:01.933Z,99.90
2018-12-24T19:38:50.179Z,99.90
2018-12-24T19:41:31.009Z,99.90
2018-12-24T19:44:11.349Z,99.90
2018-12-24T19:46:52.361Z,99.90
2018-12-24T19:49:33.071Z,99.90
2018-12-24T19:52:13.784Z,99.90
2018-12-24T19:54:55.031Z,99.90
2018-12-24T19:57:36.200Z,99.90
2018-12-24T20:00:17.070Z,99.90
2018-12-24T20:02:58.058Z,99.90
2018-12-24T20:05:38.862Z,99.90
2018-12-24T20:08:19.529Z,99.90
2018-12-24T20:11:00.050Z,99.90
2018-12-24T20:13:40.796Z,99.90
2018-12-24T20:16:22.341Z,99.90
2018-12-24T20:19:03.481Z,99.90
2018-12-24T20:21:44.817Z,99.90
2018-12-24T20:24:25.858Z,99.90
2018-12-24T20:27:06.937Z,99.90
2018-12-24T20:29:47.765Z,99.90
2018-12-24T20:32:29.091Z,99.90
2018-12-24T20:35:10.393Z,99.90
2018-12-24T20:37:51.274Z,99.90
2018-12-24T20:40:32.216Z,99.90
2018-12-24T20:43:12.773Z,99.90
2018-12-24T20:45:53.895Z,99.90
2018-12-24T20:51:05.580Z,99.90
2018-12-24T20:53:53.785Z,99.90
2018-12-24T20:56:34.188Z,99.90
2018-12-24T20:59:15.013Z,99.90
2018-12-24T21:01:56.192Z,99.90
2018-12-24T21:04:36.950Z,99.90
2018-12-24T21:07:17.997Z,99.90
2018-12-24T21:09:58.573Z,99.90
2018-12-24T21:12:39.343Z,99.90
2018-12-24T21:15:20.292Z,99.90
2018-12-24T21:18:01.387Z,99.90
2018-12-24T21:20:42.333Z,99.90
2018-12-24T21:23:22.878Z,99.90
2018-12-24T21:26:03.676Z,99.90
2018-12-24T21:28:44.870Z,99.90
2018-12-24T21:31:26.065Z,99.90
2018-12-24T21:33:55.284Z,99.90
2018-12-24T21:36:43.516Z,99.90
2018-12-24T21:39:24.118Z,99.90
2018-12-24T21:42:04.570Z,99.90
2018-12-24T21:44:45.759Z,99.90
2018-12-24T21:47:27.024Z,99.90
2018-12-24T21:50:08.271Z,99.90
2018-12-24T21:52:49.002Z,99.90
2018-12-24T21:55:29.665Z,99.90
2018-12-24T21:58:11.120Z,99.90
2018-12-24T22:00:51.633Z,99.90
2018-12-24T22:03:32.433Z,99.90
2018-12-24T22:06:13.404Z,99.90
2018-12-24T22:08:54.701Z,99.90
2018-12-24T22:11:35.924Z,99.90
2018-12-24T22:14:16.601Z,99.90
2018-12-24T22:16:58.079Z,99.90
2018-12-24T22:19:38.701Z,99.90
2018-12-24T22:22:19.750Z,99.90
2018-12-24T22:25:00.266Z,99.90
2018-12-24T22:27:41.280Z,99.90
2018-12-24T22:30:22.659Z,99.90
2018-12-24T22:33:03.823Z,99.90
2018-12-24T22:35:45.003Z,99.90
2018-12-24T22:38:26.021Z,99.90
2018-12-24T22:41:06.724Z,99.90
2018-12-24T22:43:47.800Z,99.90
2018-12-24T22:46:28.365Z,99.90
2018-12-24T22:49:09.061Z,99.90
2018-12-24T22:51:49.789Z,99.90
2018-12-24T22:54:31.197Z,99.90
2018-12-24T22:57:12.357Z,99.90
2018-12-24T22:59:53.456Z,99.90
2018-12-24T23:02:34.046Z,99.90
2018-12-24T23:05:15.277Z,99.90
2018-12-24T23:07:56.389Z,99.90
2018-12-24T23:10:37.704Z,99.90
2018-12-24T23:13:18.899Z,99.90
2018-12-24T23:16:00.145Z,99.90
2018-12-24T23:18:49.147Z,99.90
2018-12-24T23:21:23.474Z,99.90
2018-12-24T23:24:05.572Z,99.90
2018-12-24T23:26:46.788Z,99.90
2018-12-24T23:29:28.477Z,99.90
2018-12-24T23:32:09.945Z,99.90
2018-12-24T23:34:50.619Z,99.90
2018-12-24T23:37:31.117Z,99.90
2018-12-24T23:40:11.667Z,99.90
2018-12-24T23:42:41.128Z,99.90
2018-12-24T23:45:29.491Z,99.90
2018-12-24T23:48:18.205Z,99.90
2018-12-24T23:50:59.530Z,99.90
2018-12-24T23:53:40.254Z,99.90
2018-12-24T23:56:20.785Z,99.90
2018-12-24T23:59:01.620Z,99.90
